createdAt,value
2018-10-19T00:00:24.115Z,94550.62
2018-10-19T00:02:53.487Z,94551.50
2018-10-19T00:05:23.017Z,94548.61
2018-10-19T00:07:52.454Z,94555.48
2018-10-19T00:10:22.252Z,94555.81
2018-10-19T00:12:51.927Z,94552.30
2018-10-19T00:15:21.406Z,94561.42
2018-10-19T00:17:50.964Z,94560.23
2018-10-19T00:20:20.548Z,94559.83
2018-10-19T00:22:49.912Z,94561.00
2018-10-19T00:25:19.232Z,94557.22
2018-10-19T00:27:48.638Z,94547.45
2018-10-19T00:30:18.035Z,94547.19
2018-10-19T00:32:47.410Z,94548.72
2018-10-19T00:35:16.814Z,94550.41
2018-10-19T00:37:46.052Z,94552.61
2018-10-19T00:40:15.398Z,94555.06
2018-10-19T00:42:44.698Z,94550.87
2018-10-19T00:45:14.136Z,94545.09
2018-10-19T00:47:43.445Z,94545.45
2018-10-19T00:50:12.839Z,94548.14
2018-10-19T00:52:42.316Z,94540.87
2018-10-19T00:55:11.760Z,94534.08
2018-10-19T00:57:41.213Z,94530.13
2018-10-19T01:00:10.471Z,94538.27
2018-10-19T01:02:40.292Z,94536.83
2018-10-19T01:05:09.557Z,94527.95
2018-10-19T01:07:38.797Z,94532.05
2018-10-19T01:10:08.081Z,94530.95
2018-10-19T01:12:37.524Z,94532.20
2018-10-19T01:15:07.046Z,94533.55
2018-10-19T01:17:36.439Z,94532.49
2018-10-19T01:20:05.969Z,94533.30
2018-10-19T01:22:35.428Z,94535.03
2018-10-19T01:25:05.011Z,94545.52
2018-10-19T01:27:34.762Z,94539.92
2018-10-19T01:30:04.429Z,94541.55
2018-10-19T01:32:33.918Z,94540.12
2018-10-19T01:35:03.667Z,94537.73
2018-10-19T01:37:33.109Z,94537.53
2018-10-19T01:40:02.400Z,94539.26
2018-10-19T01:42:31.683Z,94534.17
2018-10-19T01:45:01.258Z,94537.16
2018-10-19T01:47:30.709Z,94538.95
2018-10-19T01:50:00.705Z,94533.08
2018-10-19T01:52:30.035Z,94535.68
2018-10-19T01:54:59.389Z,94541.64
2018-10-19T01:57:28.772Z,94540.95
2018-10-19T01:59:58.302Z,94536.48
2018-10-19T02:02:27.808Z,94541.27
2018-10-19T02:04:57.195Z,94544.86
2018-10-19T02:07:26.594Z,94550.42
2018-10-19T02:09:55.936Z,94548.44
2018-10-19T02:12:25.282Z,94547.92
2018-10-19T02:14:54.536Z,94548.34
2018-10-19T02:17:23.919Z,94540.55
2018-10-19T02:19:53.264Z,94538.56
2018-10-19T02:22:22.814Z,94537.87
2018-10-19T02:24:52.176Z,94542.36
2018-10-19T02:27:21.506Z,94541.67
2018-10-19T02:29:50.764Z,94541.36
2018-10-19T02:32:20.158Z,94539.86
2018-10-19T02:34:49.585Z,94542.36
2018-10-19T02:37:19.162Z,94539.36
2018-10-19T02:39:48.664Z,94547.41
2018-10-19T02:42:18.360Z,94542.05
2018-10-19T02:44:48.353Z,94540.74
2018-10-19T02:47:17.691Z,94535.84
2018-10-19T02:49:46.912Z,94541.93
2018-10-19T02:52:16.255Z,94539.61
2018-10-19T02:54:45.705Z,94544.51
2018-10-19T02:57:15.201Z,94546.71
2018-10-19T02:59:44.532Z,94554.59
2018-10-19T03:02:13.770Z,94553.30
2018-10-19T03:04:43.345Z,94549.97
2018-10-19T03:07:12.766Z,94551.87
2018-10-19T03:09:42.150Z,94555.34
2018-10-19T03:12:11.320Z,94557.92
2018-10-19T03:14:40.586Z,94554.45
2018-10-19T03:17:10.162Z,94558.89
2018-10-19T03:19:39.559Z,94556.39
2018-10-19T03:22:08.956Z,94552.77
2018-10-19T03:24:38.204Z,94554.67
2018-10-19T03:27:08.418Z,94557.05
2018-10-19T03:29:37.779Z,94554.84
2018-10-19T03:32:07.263Z,94553.20
2018-10-19T03:34:36.507Z,94547.53
2018-10-19T03:37:06.177Z,94560.16
2018-10-19T03:39:35.643Z,94560.30
2018-10-19T03:42:04.865Z,94560.41
2018-10-19T03:44:34.211Z,94559.09
2018-10-19T03:47:03.744Z,94558.41
2018-10-19T03:49:33.061Z,94557.46
2018-10-19T03:52:02.607Z,94557.46
2018-10-19T03:54:32.213Z,94554.19
2018-10-19T03:57:01.788Z,94556.66
2018-10-19T03:59:31.116Z,94555.90
2018-10-19T04:02:00.505Z,94557.16
2018-10-19T04:04:29.897Z,94556.38
2018-10-19T04:06:59.227Z,94556.92
2018-10-19T04:09:28.656Z,94561.80
2018-10-19T04:11:58.076Z,94568.75
2018-10-19T04:14:27.332Z,94567.91
2018-10-19T04:16:56.868Z,94572.74
2018-10-19T04:19:26.296Z,94575.53
2018-10-19T04:21:55.783Z,94572.94
2018-10-19T04:24:25.041Z,94577.14
2018-10-19T04:26:55.421Z,94575.41
2018-10-19T04:29:24.811Z,94579.41
2018-10-19T04:31:54.263Z,94580.40
2018-10-19T04:34:23.717Z,94580.91
2018-10-19T04:36:57.560Z,94582.94
2018-10-19T04:39:26.901Z,94585.09
2018-10-19T04:41:56.269Z,94588.73
2018-10-19T04:44:25.907Z,94585.56
2018-10-19T04:46:55.730Z,94586.27
2018-10-19T04:49:25.442Z,94589.77
2018-10-19T04:51:54.813Z,94591.61
2018-10-19T04:54:24.355Z,94590.02
2018-10-19T04:56:53.784Z,94591.67
2018-10-19T04:59:23.176Z,94591.09
2018-10-19T05:01:52.542Z,94593.00
2018-10-19T05:04:22.001Z,94588.66
2018-10-19T05:06:51.318Z,94591.89
2018-10-19T05:09:20.704Z,94592.39
2018-10-19T05:11:50.010Z,94590.57
2018-10-19T05:14:20.318Z,94589.98
2018-10-19T05:16:49.573Z,94594.94
2018-10-19T05:19:18.802Z,94596.94
2018-10-19T05:21:48.121Z,94597.13
2018-10-19T05:24:17.424Z,94603.09
2018-10-19T05:26:46.649Z,94599.70
2018-10-19T05:29:16.053Z,94603.09
2018-10-19T05:31:46.226Z,94609.37
2018-10-19T05:34:15.656Z,94608.02
2018-10-19T05:36:45.030Z,94611.59
2018-10-19T05:39:14.323Z,94605.03
2018-10-19T05:41:43.699Z,94608.88
2018-10-19T05:44:13.225Z,94611.34
2018-10-19T05:46:42.517Z,94615.25
2018-10-19T05:49:12.075Z,94617.40
2018-10-19T05:51:41.470Z,94629.89
2018-10-19T05:54:10.753Z,94626.14
2018-10-19T05:56:40.091Z,94625.89
2018-10-19T05:59:09.474Z,94629.09
2018-10-19T06:01:38.971Z,94637.16
2018-10-19T06:04:08.567Z,94642.87
2018-10-19T06:06:37.972Z,94647.19
2018-10-19T06:09:09.624Z,94648.79
2018-10-19T06:11:39.029Z,94649.59
2018-10-19T06:14:08.844Z,94652.08
2018-10-19T06:16:38.384Z,94654.97
2018-10-19T06:19:09.424Z,94657.25
2018-10-19T06:21:38.732Z,94662.97
2018-10-19T06:24:08.964Z,94656.65
2018-10-19T06:26:38.699Z,94664.41
2018-10-19T06:29:08.161Z,94664.95
2018-10-19T06:31:37.470Z,94662.25
2018-10-19T06:34:06.755Z,94668.48
2018-10-19T06:36:36.114Z,94667.50
2018-10-19T06:39:07.062Z,94675.02
2018-10-19T06:41:36.488Z,94671.05
2018-10-19T06:44:06.200Z,94677.88
2018-10-19T06:46:35.738Z,94678.34
2018-10-19T06:49:05.093Z,94674.38
2018-10-19T06:51:34.684Z,94675.86
2018-10-19T06:54:04.269Z,94683.22
2018-10-19T06:56:33.623Z,94684.02
2018-10-19T06:59:03.215Z,94682.64
2018-10-19T07:01:32.714Z,94678.56
2018-10-19T07:04:02.257Z,94684.96
2018-10-19T07:06:31.754Z,94680.47
2018-10-19T07:09:01.886Z,94685.16
2018-10-19T07:11:31.318Z,94680.81
2018-10-19T07:14:00.688Z,94686.95
2018-10-19T07:16:30.037Z,94689.28
2018-10-19T07:18:59.490Z,94692.62
2018-10-19T07:21:28.847Z,94696.54
2018-10-19T07:23:58.170Z,94702.14
2018-10-19T07:26:27.541Z,94703.66
2018-10-19T07:28:57.041Z,94698.55
2018-10-19T07:31:26.405Z,94705.09
2018-10-19T07:33:55.879Z,94705.48
2018-10-19T07:36:25.899Z,94712.11
2018-10-19T07:38:55.246Z,94708.73
2018-10-19T07:41:24.545Z,94714.30
2018-10-19T07:43:53.899Z,94713.02
2018-10-19T07:46:23.201Z,94720.42
2018-10-19T07:48:52.530Z,94724.86
2018-10-19T07:51:22.127Z,94721.09
2018-10-19T07:53:51.259Z,94723.47
2018-10-19T07:56:20.755Z,94716.77
2018-10-19T07:58:50.136Z,94709.23
2018-10-19T08:01:19.397Z,94710.58
2018-10-19T08:03:48.748Z,94705.86
2018-10-19T08:06:17.992Z,94707.05
2018-10-19T08:08:47.385Z,94703.89
2018-10-19T08:11:16.710Z,94706.41
2018-10-19T08:13:46.097Z,94709.35
2018-10-19T08:16:15.626Z,94703.75
2018-10-19T08:18:45.277Z,94704.63
2018-10-19T08:21:14.821Z,94700.41
2018-10-19T08:23:44.221Z,94706.88
2018-10-19T08:26:13.689Z,94710.06
2018-10-19T08:28:43.148Z,94709.64
2018-10-19T08:31:13.732Z,94706.59
2018-10-19T08:33:42.932Z,94708.23
2018-10-19T08:36:12.514Z,94705.59
2018-10-19T08:38:41.942Z,94708.48
2018-10-19T08:41:11.496Z,94705.53
2018-10-19T08:43:40.812Z,94704.50
2018-10-19T08:46:15.223Z,94704.71
2018-10-19T08:48:44.561Z,94708.92
2018-10-19T08:51:13.907Z,94705.20
2018-10-19T08:53:43.078Z,94706.52
2018-10-19T08:56:12.416Z,94706.72
2018-10-19T08:58:41.710Z,94703.30
2018-10-19T09:01:11.083Z,94707.27
2018-10-19T09:03:40.397Z,94701.13
2018-10-19T09:06:09.878Z,94699.73
2018-10-19T09:08:39.456Z,94690.64
2018-10-19T09:11:08.818Z,94696.01
2018-10-19T09:13:38.769Z,94692.20
2018-10-19T09:16:08.118Z,94697.97
2018-10-19T09:18:37.356Z,94691.08
2018-10-19T09:21:06.876Z,94689.20
2018-10-19T09:23:36.441Z,94681.22
2018-10-19T09:26:06.102Z,94685.63
2018-10-19T09:28:35.390Z,94684.91
2018-10-19T09:31:04.666Z,94683.64
2018-10-19T09:33:34.227Z,94677.94
2018-10-19T09:36:03.721Z,94687.69
2018-10-19T09:38:33.431Z,94685.16
2018-10-19T09:41:02.930Z,94680.46
2018-10-19T09:43:32.168Z,94663.86
2018-10-19T09:46:01.417Z,94671.74
2018-10-19T09:48:30.905Z,94663.55
2018-10-19T09:51:00.516Z,94658.66
2018-10-19T09:53:29.977Z,94657.31
2018-10-19T09:55:59.480Z,94651.27
2018-10-19T09:58:28.871Z,94648.19
2018-10-19T10:00:58.912Z,94649.74
2018-10-19T10:03:29.209Z,94650.37
2018-10-19T10:05:59.016Z,94652.55
2018-10-19T10:08:28.579Z,94646.83
2018-10-19T10:10:58.187Z,94649.64
2018-10-19T10:13:27.663Z,94650.96
2018-10-19T10:15:56.969Z,94633.96
2018-10-19T10:18:27.419Z,94638.72
2018-10-19T10:20:56.694Z,94636.98
2018-10-19T10:23:26.147Z,94629.76
2018-10-19T10:25:55.749Z,94624.22
2018-10-19T10:28:25.107Z,94626.07
2018-10-19T10:30:54.454Z,94621.62
2018-10-19T10:33:23.892Z,94605.16
2018-10-19T10:35:53.286Z,94604.98
2018-10-19T10:38:22.762Z,94597.19
2018-10-19T10:40:52.231Z,94595.60
2018-10-19T10:43:21.597Z,94592.39
2018-10-19T10:45:51.054Z,94581.39
2018-10-19T10:48:21.821Z,94577.57
2018-10-19T10:50:51.274Z,94570.23
2018-10-19T10:53:20.860Z,94574.09
2018-10-19T10:55:50.355Z,94570.56
2018-10-19T10:58:19.755Z,94569.53
2018-10-19T11:00:49.090Z,94569.70
2018-10-19T11:03:18.510Z,94562.84
2018-10-19T11:05:47.801Z,94556.08
2018-10-19T11:08:17.226Z,94557.14
2018-10-19T11:10:46.567Z,94554.31
2018-10-19T11:13:16.372Z,94549.69
2018-10-19T11:15:45.575Z,94553.13
2018-10-19T11:18:14.878Z,94545.66
2018-10-19T11:20:44.183Z,94544.05
2018-10-19T11:23:14.007Z,94537.95
2018-10-19T11:25:43.573Z,94539.66
2018-10-19T11:28:13.399Z,94535.08
2018-10-19T11:30:42.708Z,94534.13
2018-10-19T11:33:12.160Z,94529.33
2018-10-19T11:35:41.640Z,94526.16
2018-10-19T11:38:11.036Z,94519.50
2018-10-19T11:40:40.553Z,94524.36
2018-10-19T11:43:10.056Z,94521.08
2018-10-19T11:45:40.211Z,94522.70
2018-10-19T11:48:09.650Z,94511.99
2018-10-19T11:50:39.077Z,94514.97
2018-10-19T11:53:08.594Z,94504.39
2018-10-19T11:55:37.886Z,94509.38
2018-10-19T11:58:07.358Z,94503.89
2018-10-19T12:00:37.087Z,94503.70
2018-10-19T12:03:06.374Z,94498.69
2018-10-19T12:05:35.813Z,94497.41
2018-10-19T12:08:05.390Z,94504.66
2018-10-19T12:10:35.360Z,94507.27
2018-10-19T12:13:04.661Z,94503.76
2018-10-19T12:15:34.725Z,94503.50
2018-10-19T12:18:03.842Z,94510.09
2018-10-19T12:20:32.867Z,94501.45
2018-10-19T12:23:01.982Z,94497.30
2018-10-19T12:25:31.402Z,94504.50
2018-10-19T12:28:00.462Z,94495.80
2018-10-19T12:30:29.480Z,94501.00
2018-10-19T12:32:58.961Z,94498.97
2018-10-19T12:35:29.074Z,94492.45
2018-10-19T12:37:58.201Z,94496.76
2018-10-19T12:40:27.552Z,94494.34
2018-10-19T12:42:56.866Z,94493.50
2018-10-19T12:46:37.472Z,94488.14
2018-10-19T12:49:07.240Z,94478.51
2018-10-19T12:51:36.527Z,94476.73
2018-10-19T12:54:06.267Z,94474.30
2018-10-19T12:56:35.656Z,94478.64
2018-10-19T12:59:05.407Z,94484.38
2018-10-19T13:01:36.039Z,94482.52
2018-10-19T13:04:05.863Z,94480.19
2018-10-19T13:06:35.249Z,94474.14
2018-10-19T13:09:07.267Z,94472.22
2018-10-19T13:11:36.749Z,94472.18
2018-10-19T13:14:06.611Z,94465.31
2018-10-19T13:16:35.962Z,94462.81
2018-10-19T13:19:05.632Z,94463.30
2018-10-19T13:21:35.287Z,94468.27
2018-10-19T13:24:04.978Z,94463.67
2018-10-19T13:26:34.578Z,94462.04
2018-10-19T13:29:04.278Z,94459.98
2018-10-19T13:31:33.735Z,94460.56
2018-10-19T13:34:03.346Z,94466.86
2018-10-19T13:36:32.681Z,94461.03
2018-10-19T13:39:02.119Z,94461.23
2018-10-19T13:41:31.599Z,94458.25
2018-10-19T13:44:01.879Z,94458.02
2018-10-19T13:46:32.098Z,94461.50
2018-10-19T13:49:02.123Z,94462.34
2018-10-19T13:51:32.445Z,94463.67
2018-10-19T13:54:02.038Z,94461.63
2018-10-19T13:56:31.622Z,94465.78
2018-10-19T13:59:01.059Z,94465.02
2018-10-19T14:01:30.434Z,94466.97
2018-10-19T14:04:00.668Z,94466.44
2018-10-19T14:06:31.019Z,94461.95
2018-10-19T14:09:00.393Z,94460.91
2018-10-19T14:11:29.667Z,94460.63
2018-10-19T14:14:00.112Z,94464.28
2018-10-19T14:16:29.397Z,94465.91
2018-10-19T14:18:58.723Z,94469.86
2018-10-19T14:21:28.071Z,94469.07
2018-10-19T14:23:57.403Z,94466.97
2018-10-19T14:26:26.836Z,94472.50
2018-10-19T14:28:56.323Z,94468.28
2018-10-19T14:31:26.523Z,94464.09
2018-10-19T14:33:55.902Z,94469.65
2018-10-19T14:36:25.445Z,94469.37
2018-10-19T14:38:55.479Z,94455.42
2018-10-19T14:41:25.048Z,94472.00
2018-10-19T14:43:54.784Z,94470.95
2018-10-19T14:46:24.197Z,94473.33
2018-10-19T14:48:54.993Z,94471.45
2018-10-19T14:51:25.112Z,94470.16
2018-10-19T14:53:54.565Z,94472.98
2018-10-19T14:56:24.065Z,94471.13
2018-10-19T14:58:53.393Z,94475.05
2018-10-19T15:01:23.153Z,94477.89
2018-10-19T15:03:52.835Z,94481.00
2018-10-19T15:06:21.992Z,94479.40
2018-10-19T15:08:51.608Z,94479.92
2018-10-19T15:11:21.181Z,94482.82
2018-10-19T15:13:50.327Z,94479.62
2018-10-19T15:16:19.636Z,94481.08
2018-10-19T15:18:49.267Z,94480.91
2018-10-19T15:21:19.023Z,94481.54
2018-10-19T15:23:48.417Z,94481.52
2018-10-19T15:26:17.831Z,94480.55
2018-10-19T15:28:48.161Z,94487.94
2018-10-19T15:31:17.855Z,94481.61
2018-10-19T15:33:47.279Z,94485.73
2018-10-19T15:36:16.727Z,94495.12
2018-10-19T15:38:46.665Z,94492.47
2018-10-19T15:41:16.025Z,94492.44
2018-10-19T15:43:46.895Z,94498.13
2018-10-19T15:46:16.400Z,94507.51
2018-10-19T15:48:45.816Z,94506.59
2018-10-19T15:51:16.368Z,94511.88
2018-10-19T15:53:46.995Z,94514.78
2018-10-19T15:56:18.097Z,94517.12
2018-10-19T15:58:47.612Z,94521.24
2018-10-19T16:01:17.410Z,94517.20
2018-10-19T16:03:46.846Z,94528.00
2018-10-19T16:06:17.006Z,94526.45
2018-10-19T16:08:46.061Z,94530.08
2018-10-19T16:11:15.304Z,94526.53
2018-10-19T16:13:44.456Z,94541.58
2018-10-19T16:16:13.557Z,94538.44
2018-10-19T16:18:42.636Z,94546.25
2018-10-19T16:21:11.896Z,94552.27
2018-10-19T16:23:40.959Z,94555.14
2018-10-19T16:26:11.996Z,94553.43
2018-10-19T16:28:41.602Z,94561.56
2018-10-19T16:31:11.111Z,94572.72
2018-10-19T16:33:40.484Z,94569.14
2018-10-19T16:36:09.995Z,94580.50
2018-10-19T16:38:39.452Z,94574.17
2018-10-19T16:41:08.824Z,94583.43
2018-10-19T16:43:38.357Z,94586.09
2018-10-19T16:46:08.124Z,94587.81
2018-10-19T16:48:38.536Z,94589.70
2018-10-19T16:51:08.693Z,94591.73
2018-10-19T16:53:38.116Z,94597.13
2018-10-19T16:56:07.487Z,94600.98
2018-10-19T16:58:36.989Z,94607.20
2018-10-19T17:01:06.649Z,94615.05
2018-10-19T17:03:36.019Z,94618.97
2018-10-19T17:06:06.128Z,94618.23
2018-10-19T17:08:35.629Z,94623.92
2018-10-19T17:11:05.291Z,94629.29
2018-10-19T17:13:34.883Z,94631.13
2018-10-19T17:16:04.492Z,94633.16
2018-10-19T17:18:34.185Z,94638.55
2018-10-19T17:21:03.928Z,94648.52
2018-10-19T17:23:37.072Z,94644.39
2018-10-19T17:26:06.993Z,94653.38
2018-10-19T17:28:37.789Z,94654.25
2018-10-19T17:31:07.890Z,94654.46
2018-10-19T17:33:37.394Z,94655.02
2018-10-19T17:36:08.179Z,94657.49
2018-10-19T17:38:37.844Z,94660.53
2018-10-19T17:41:07.298Z,94663.06
2018-10-19T17:43:37.928Z,94659.89
2018-10-19T17:46:07.366Z,94666.25
2018-10-19T17:48:37.461Z,94667.39
2018-10-19T17:51:08.125Z,94674.55
2018-10-19T17:53:38.878Z,94673.61
2018-10-19T17:56:08.700Z,94671.30
2018-10-19T17:58:41.666Z,94678.66
2018-10-19T18:01:12.283Z,94672.95
2018-10-19T18:03:42.634Z,94683.89
2018-10-19T18:06:14.000Z,94682.89
2018-10-19T18:08:44.728Z,94684.47
2018-10-19T18:11:17.225Z,94684.44
2018-10-19T18:13:47.047Z,94685.72
2018-10-19T18:16:18.722Z,94688.82
2018-10-19T18:18:49.235Z,94689.05
2018-10-19T18:21:19.292Z,94679.11
2018-10-19T18:23:49.048Z,94686.22
2018-10-19T18:26:19.692Z,94686.67
2018-10-19T18:28:50.718Z,94689.23
2018-10-19T18:31:21.524Z,94694.86
2018-10-19T18:33:53.356Z,94695.45
2018-10-19T18:36:24.244Z,94696.16
2018-10-19T18:38:54.162Z,94693.26
2018-10-19T18:41:24.337Z,94700.70
2018-10-19T18:43:55.256Z,94699.95
2018-10-19T18:46:24.907Z,94704.67
2018-10-19T18:48:55.548Z,94704.19
2018-10-19T18:51:25.161Z,94705.93
2018-10-19T18:53:54.775Z,94713.36
2018-10-19T18:56:25.868Z,94711.35
2018-10-19T18:58:56.573Z,94719.59
2018-10-19T19:01:26.299Z,94727.21
2018-10-19T19:03:55.867Z,94722.97
2018-10-19T19:06:25.711Z,94721.10
2018-10-19T19:08:55.086Z,94722.80
2018-10-19T19:11:24.511Z,94724.61
2018-10-19T19:13:54.666Z,94726.27
2018-10-19T19:16:28.488Z,94728.76
2018-10-19T19:18:57.905Z,94729.76
2018-10-19T19:21:27.586Z,94732.05
2018-10-19T19:24:02.151Z,94739.05
2018-10-19T19:26:33.459Z,94741.05
2018-10-19T19:29:03.173Z,94738.45
2018-10-19T19:31:33.184Z,94736.88
2018-10-19T19:34:07.668Z,94737.86
2018-10-19T19:36:37.140Z,94740.66
2018-10-19T19:39:09.468Z,94737.98
2018-10-19T19:41:44.047Z,94739.77
2018-10-19T19:44:15.155Z,94740.77
2018-10-19T19:46:46.514Z,94743.02
2018-10-19T19:49:21.377Z,94740.08
2018-10-19T19:51:51.870Z,94745.85
2018-10-19T19:54:21.329Z,94740.17
2018-10-19T19:56:51.760Z,94740.28
2018-10-19T19:59:25.355Z,94742.87
2018-10-19T20:01:56.675Z,94742.97
2018-10-19T20:04:26.357Z,94747.66
2018-10-19T20:06:57.056Z,94749.42
2018-10-19T20:09:30.533Z,94757.91
2018-10-19T20:12:01.511Z,94760.67
2018-10-19T20:14:31.375Z,94763.52
2018-10-19T20:17:00.856Z,94764.87
2018-10-19T20:19:31.389Z,94767.23
2018-10-19T20:22:01.135Z,94771.27
2018-10-19T20:24:31.552Z,94775.41
2018-10-19T20:27:01.050Z,94777.59
2018-10-19T20:29:32.276Z,94782.67
2018-10-19T20:32:01.798Z,94786.45
2018-10-19T20:34:32.067Z,94791.77
2018-10-19T20:37:01.644Z,94788.72
2018-10-19T20:39:31.982Z,94792.34
2018-10-19T20:42:01.555Z,94800.45
2018-10-19T20:44:30.955Z,94793.17
2018-10-19T20:47:00.329Z,94791.09
2018-10-19T20:49:30.407Z,94790.56
2018-10-19T20:51:59.825Z,94799.17
2018-10-19T20:54:29.370Z,94800.55
2018-10-19T20:56:59.644Z,94800.28
2018-10-19T20:59:29.459Z,94804.41
2018-10-19T21:01:58.927Z,94808.04
2018-10-19T21:04:28.333Z,94805.72
2018-10-19T21:06:58.392Z,94805.52
2018-10-19T21:09:27.780Z,94802.27
2018-10-19T21:11:57.852Z,94808.92
2018-10-19T21:14:27.324Z,94809.24
2018-10-19T21:16:56.939Z,94814.06
2018-10-19T21:19:26.493Z,94819.52
2018-10-19T21:21:55.911Z,94816.00
2018-10-19T21:24:25.466Z,94817.61
2018-10-19T21:26:55.336Z,94822.16
2018-10-19T21:29:32.047Z,94818.59
2018-10-19T21:32:01.394Z,94820.03
2018-10-19T21:34:30.819Z,94822.25
2018-10-19T21:37:00.197Z,94819.61
2018-10-19T21:39:29.729Z,94823.77
2018-10-19T21:41:59.135Z,94830.86
2018-10-19T21:44:28.538Z,94822.97
2018-10-19T21:46:58.003Z,94836.09
2018-10-19T21:49:27.414Z,94830.19
2018-10-19T21:51:56.723Z,94831.41
2018-10-19T21:54:26.060Z,94837.58
2018-10-19T21:56:55.502Z,94833.20
2018-10-19T21:59:24.980Z,94836.47
2018-10-19T22:01:54.430Z,94840.30
2018-10-19T22:04:23.875Z,94842.20
2018-10-19T22:06:53.244Z,94845.19
2018-10-19T22:09:22.644Z,94836.00
2018-10-19T22:11:51.988Z,94845.73
2018-10-19T22:14:21.530Z,94850.41
2018-10-19T22:16:51.049Z,94846.09
2018-10-19T22:19:20.400Z,94852.05
2018-10-19T22:21:49.921Z,94848.63
2018-10-19T22:24:19.302Z,94852.73
2018-10-19T22:26:48.688Z,94851.58
2018-10-19T22:29:18.146Z,94856.73
2018-10-19T22:31:47.631Z,94862.45
2018-10-19T22:34:17.176Z,94857.84
2018-10-19T22:36:46.615Z,94858.23
2018-10-19T22:39:16.352Z,94863.15
2018-10-19T22:41:45.759Z,94863.43
2018-10-19T22:44:15.553Z,94860.80
2018-10-19T22:46:44.899Z,94865.08
2018-10-19T22:49:14.091Z,94861.77
2018-10-19T22:51:43.503Z,94857.94
2018-10-19T22:54:12.928Z,94871.23
2018-10-19T22:56:42.574Z,94873.31
2018-10-19T22:59:12.038Z,94872.97
2018-10-19T23:01:41.452Z,94875.23
2018-10-19T23:04:10.857Z,94880.75
2018-10-19T23:06:40.323Z,94885.42
2018-10-19T23:09:10.201Z,94886.44
2018-10-19T23:11:39.670Z,94885.14
2018-10-19T23:14:09.116Z,94880.77
2018-10-19T23:16:38.863Z,94890.88
2018-10-19T23:19:08.704Z,94892.00
2018-10-19T23:21:38.151Z,94894.13
2018-10-19T23:24:08.172Z,94890.91
2018-10-19T23:26:37.740Z,94890.88
2018-10-19T23:29:07.316Z,94893.56
2018-10-19T23:31:36.854Z,94888.20
2018-10-19T23:34:06.973Z,94891.02
2018-10-19T23:36:36.677Z,94895.64
2018-10-19T23:39:09.402Z,94899.75
2018-10-19T23:41:39.013Z,94900.66
2018-10-19T23:44:08.490Z,94900.59
2018-10-19T23:46:38.227Z,94902.13
2018-10-19T23:49:08.082Z,94907.44
2018-10-19T23:51:37.686Z,94909.91
2018-10-19T23:54:07.011Z,94906.00
2018-10-19T23:56:36.393Z,94908.90
2018-10-19T23:59:06.206Z,94914.12
